createdAt,value
2022-09-30T00:01:13.149Z,0.43
2022-09-30T00:03:41.554Z,0.57
2022-09-30T00:06:11.081Z,0.50
2022-09-30T00:08:39.941Z,0.50
2022-09-30T00:11:09.265Z,0.50
2022-09-30T00:13:38.651Z,0.60
2022-09-30T00:16:09.128Z,0.60
2022-09-30T00:18:38.096Z,0.50
2022-09-30T00:21:06.560Z,0.87
2022-09-30T00:23:34.942Z,0.50
2022-09-30T00:26:04.243Z,0.50
2022-09-30T00:28:32.911Z,1.33
2022-09-30T00:31:01.683Z,0.50
2022-09-30T00:33:31.420Z,0.50
2022-09-30T00:35:59.760Z,1.67
2022-09-30T00:38:28.119Z,0.50
2022-09-30T00:40:56.658Z,0.50
2022-09-30T00:43:42.220Z,0.50
2022-09-30T00:46:15.603Z,0.50
2022-09-30T00:48:45.406Z,0.60
2022-09-30T00:51:13.818Z,0.60
2022-09-30T00:53:47.099Z,0.50
2022-09-30T00:56:18.864Z,0.57
2022-09-30T00:58:48.940Z,1.27
2022-09-30T01:01:17.312Z,0.60
2022-09-30T01:03:50.621Z,1.23
2022-09-30T01:06:18.944Z,0.60
2022-09-30T01:08:47.338Z,0.60
2022-09-30T01:11:15.723Z,0.90
2022-09-30T01:13:44.548Z,1.03
2022-09-30T01:16:25.159Z,1.53
2022-09-30T01:19:00.520Z,0.60
2022-09-30T01:21:55.977Z,1.83
2022-09-30T01:24:49.747Z,0.60
2022-09-30T01:27:20.396Z,0.60
2022-09-30T01:29:55.262Z,0.60
2022-09-30T01:32:30.380Z,0.60
2022-09-30T01:35:09.018Z,1.17
2022-09-30T01:37:41.785Z,0.60
2022-09-30T01:40:14.485Z,0.60
2022-09-30T01:42:48.136Z,0.60
2022-09-30T01:45:18.563Z,0.50
2022-09-30T01:47:50.271Z,0.80
2022-09-30T01:50:21.017Z,2.00
2022-09-30T01:52:54.373Z,0.60
2022-09-30T01:55:25.399Z,1.23
2022-09-30T01:57:58.216Z,1.00
2022-09-30T02:00:26.880Z,0.50
2022-09-30T02:02:58.756Z,0.70
2022-09-30T02:05:28.833Z,1.20
2022-09-30T02:07:59.123Z,1.10
2022-09-30T02:10:29.381Z,1.00
2022-09-30T02:13:03.446Z,0.70
2022-09-30T02:15:38.489Z,0.60
2022-09-30T02:18:13.519Z,0.60
2022-09-30T02:20:44.307Z,0.70
2022-09-30T02:23:15.467Z,1.27
2022-09-30T02:25:46.727Z,0.60
2022-09-30T02:28:18.217Z,0.60
2022-09-30T02:30:48.046Z,0.67
2022-09-30T02:33:21.250Z,3.83
2022-09-30T02:35:51.591Z,4.70
2022-09-30T02:38:20.841Z,1.87
2022-09-30T02:40:51.486Z,1.30
2022-09-30T02:43:21.306Z,1.10
2022-09-30T02:45:53.268Z,2.00
2022-09-30T02:48:28.180Z,2.83
2022-09-30T02:50:58.081Z,3.63
2022-09-30T02:53:29.427Z,3.87
2022-09-30T02:56:12.696Z,1.87
2022-09-30T02:58:43.329Z,3.97
2022-09-30T03:01:12.500Z,0.90
2022-09-30T03:03:44.149Z,0.60
2022-09-30T03:06:12.945Z,1.30
2022-09-30T03:08:41.249Z,0.63
2022-09-30T03:11:09.880Z,0.80
2022-09-30T03:13:55.876Z,0.60
2022-09-30T03:16:29.758Z,0.80
2022-09-30T03:19:08.008Z,0.60
2022-09-30T03:21:44.477Z,0.70
2022-09-30T03:24:41.841Z,0.60
2022-09-30T03:27:14.686Z,0.80
2022-09-30T03:29:47.109Z,0.60
2022-09-30T03:32:20.935Z,0.60
2022-09-30T03:35:00.019Z,0.60
2022-09-30T03:37:33.524Z,1.97
2022-09-30T03:40:04.870Z,0.60
2022-09-30T03:42:38.066Z,0.60
2022-09-30T03:45:09.328Z,0.60
2022-09-30T03:47:42.609Z,0.60
2022-09-30T03:50:13.939Z,0.60
2022-09-30T03:52:42.509Z,0.60
2022-09-30T03:55:11.756Z,0.50
2022-09-30T03:57:40.217Z,0.60
2022-09-30T04:00:09.225Z,0.60
2022-09-30T04:02:38.144Z,0.60
2022-09-30T04:05:07.180Z,0.60
2022-09-30T04:07:37.166Z,0.60
2022-09-30T04:10:05.790Z,0.70
2022-09-30T04:12:34.116Z,0.60
2022-09-30T04:15:02.476Z,0.60
2022-09-30T04:17:31.082Z,0.60
2022-09-30T04:19:59.490Z,0.70
2022-09-30T04:22:27.807Z,0.60
2022-09-30T04:24:57.734Z,0.60
2022-09-30T04:27:27.253Z,1.10
2022-09-30T04:29:55.676Z,1.27
2022-09-30T04:32:25.789Z,1.43
2022-09-30T04:34:54.679Z,1.10
2022-09-30T04:37:23.998Z,0.60
2022-09-30T04:39:52.310Z,0.60
2022-09-30T04:42:21.999Z,0.90
2022-09-30T04:44:50.365Z,0.70
2022-09-30T04:47:18.732Z,0.70
2022-09-30T04:49:47.154Z,0.70
2022-09-30T04:52:15.497Z,0.70
2022-09-30T04:54:43.807Z,0.80
2022-09-30T04:57:14.126Z,0.60
2022-09-30T04:59:44.116Z,0.60
2022-09-30T05:02:13.002Z,0.90
2022-09-30T05:04:41.341Z,0.80
2022-09-30T05:07:09.825Z,2.63
2022-09-30T05:09:38.207Z,0.70
2022-09-30T05:12:06.672Z,0.70
2022-09-30T05:14:35.010Z,1.23
2022-09-30T05:17:04.645Z,0.80
2022-09-30T05:19:33.009Z,2.00
2022-09-30T05:22:01.278Z,0.90
2022-09-30T05:24:32.873Z,0.60
2022-09-30T05:27:01.212Z,0.73
2022-09-30T05:29:29.691Z,1.10
2022-09-30T05:31:58.219Z,1.17
2022-09-30T05:34:28.225Z,1.20
2022-09-30T05:36:59.319Z,1.23
2022-09-30T05:39:27.738Z,0.70
2022-09-30T05:41:57.846Z,1.80
2022-09-30T05:44:26.330Z,0.60
2022-09-30T05:46:54.811Z,0.80
2022-09-30T05:49:23.359Z,1.90
2022-09-30T05:51:53.307Z,1.00
2022-09-30T05:54:24.849Z,1.70
2022-09-30T05:56:53.248Z,0.70
2022-09-30T05:59:21.557Z,0.60
2022-09-30T06:01:49.941Z,0.60
2022-09-30T06:04:18.606Z,4.00
2022-09-30T06:06:48.668Z,1.47
2022-09-30T06:09:18.553Z,5.40
2022-09-30T06:11:46.994Z,5.93
2022-09-30T06:14:16.938Z,7.17
2022-09-30T06:16:45.251Z,6.50
2022-09-30T06:19:13.808Z,5.83
2022-09-30T06:21:42.242Z,6.63
2022-09-30T06:24:13.198Z,4.17
2022-09-30T06:26:43.427Z,7.63
2022-09-30T06:29:11.960Z,6.30
2022-09-30T06:31:40.339Z,7.17
2022-09-30T06:34:08.792Z,6.70
2022-09-30T06:36:39.034Z,5.40
2022-09-30T06:39:12.816Z,5.30
2022-09-30T06:41:44.044Z,4.13
2022-09-30T06:44:12.508Z,5.17
2022-09-30T06:46:52.433Z,5.13
2022-09-30T06:49:22.085Z,4.10
2022-09-30T06:51:52.206Z,5.50
2022-09-30T06:54:21.897Z,1.87
2022-09-30T06:56:53.371Z,1.37
2022-09-30T06:59:22.997Z,4.77
2022-09-30T07:01:53.024Z,1.23
2022-09-30T07:04:21.570Z,5.77
2022-09-30T07:06:50.228Z,4.90
2022-09-30T07:09:19.112Z,3.73
2022-09-30T07:11:48.259Z,3.77
2022-09-30T07:14:18.167Z,2.40
2022-09-30T07:16:47.194Z,4.23
2022-09-30T07:19:17.805Z,6.07
2022-09-30T07:21:46.289Z,6.43
2022-09-30T07:24:15.050Z,4.50
2022-09-30T07:26:45.302Z,6.27
2022-09-30T07:29:14.204Z,4.10
2022-09-30T07:31:44.215Z,5.20
2022-09-30T07:34:13.249Z,5.83
2022-09-30T07:36:43.560Z,5.73
2022-09-30T07:39:12.772Z,4.03
2022-09-30T07:41:41.973Z,4.30
2022-09-30T07:44:13.370Z,4.33
2022-09-30T07:46:42.500Z,3.00
2022-09-30T07:49:14.657Z,3.20
2022-09-30T07:51:45.578Z,2.40
2022-09-30T07:54:15.166Z,1.73
2022-09-30T07:59:33.556Z,1.60
2022-09-30T08:02:02.348Z,1.80
2022-09-30T08:04:32.372Z,1.37
2022-09-30T08:07:02.332Z,1.70
2022-09-30T08:09:32.141Z,1.40
2022-09-30T08:12:00.927Z,1.47
2022-09-30T08:14:30.057Z,0.83
2022-09-30T08:17:00.561Z,1.40
2022-09-30T08:19:29.946Z,1.47
2022-09-30T08:22:00.000Z,1.60
2022-09-30T08:24:28.921Z,1.77
2022-09-30T08:26:57.610Z,1.40
2022-09-30T08:32:17.628Z,1.43
2022-09-30T08:34:46.463Z,1.37
2022-09-30T08:37:18.592Z,1.70
2022-09-30T08:39:48.613Z,1.20
2022-09-30T08:42:36.801Z,1.50
2022-09-30T08:45:11.445Z,1.40
2022-09-30T08:47:47.484Z,1.87
2022-09-30T08:50:21.786Z,1.13
2022-09-30T08:52:52.994Z,1.50
2022-09-30T08:55:24.109Z,1.40
2022-09-30T08:57:54.123Z,1.80
2022-09-30T09:00:31.895Z,1.93
2022-09-30T09:03:01.432Z,1.73
2022-09-30T09:05:33.546Z,1.87
2022-09-30T09:08:06.977Z,1.67
2022-09-30T09:10:41.212Z,1.13
2022-09-30T09:13:15.936Z,1.60
2022-09-30T09:15:52.402Z,1.13
2022-09-30T09:18:25.863Z,1.40
2022-09-30T09:20:56.513Z,1.20
2022-09-30T09:23:26.865Z,1.30
2022-09-30T09:25:59.193Z,1.17
2022-09-30T09:28:33.855Z,1.40
2022-09-30T09:31:03.235Z,0.70
2022-09-30T09:33:35.375Z,1.10
2022-09-30T09:36:10.989Z,1.30
2022-09-30T09:38:46.009Z,1.80
2022-09-30T09:41:21.691Z,1.47
2022-09-30T09:43:56.425Z,1.60
2022-09-30T09:46:27.789Z,1.60
2022-09-30T09:49:16.105Z,1.20
2022-09-30T09:51:48.274Z,1.83
2022-09-30T09:54:20.613Z,1.60
2022-09-30T09:56:53.091Z,2.00
2022-09-30T09:59:21.811Z,1.80
2022-09-30T10:01:51.854Z,1.60
2022-09-30T10:04:24.534Z,2.33
2022-09-30T10:06:54.862Z,2.27
2022-09-30T10:09:29.089Z,2.70
2022-09-30T10:12:12.338Z,3.00
2022-09-30T10:14:46.374Z,3.47
2022-09-30T10:17:20.322Z,1.97
2022-09-30T10:19:51.891Z,2.53
2022-09-30T10:22:20.913Z,5.37
2022-09-30T10:24:50.785Z,5.37
2022-09-30T10:27:29.268Z,4.77
2022-09-30T10:29:57.882Z,4.83
2022-09-30T10:32:27.474Z,5.13
2022-09-30T10:34:57.250Z,3.83
2022-09-30T10:37:29.142Z,3.53
2022-09-30T10:40:01.490Z,1.97
2022-09-30T10:42:31.412Z,2.93
2022-09-30T10:45:03.116Z,2.27
2022-09-30T10:47:36.727Z,3.57
2022-09-30T10:50:08.207Z,5.50
2022-09-30T10:52:38.536Z,4.90
2022-09-30T10:55:15.696Z,4.70
2022-09-30T10:57:48.432Z,2.73
2022-09-30T11:00:19.690Z,2.87
2022-09-30T11:02:53.849Z,3.50
2022-09-30T11:05:24.502Z,4.20
2022-09-30T11:07:55.318Z,4.03
2022-09-30T11:10:32.052Z,3.80
2022-09-30T11:13:03.871Z,3.10
2022-09-30T11:15:34.271Z,2.13
2022-09-30T11:18:07.454Z,1.03
2022-09-30T11:20:40.604Z,1.13
2022-09-30T11:23:17.322Z,2.97
2022-09-30T11:25:49.333Z,1.47
2022-09-30T11:28:27.171Z,0.87
2022-09-30T11:30:58.494Z,0.70
2022-09-30T11:33:33.793Z,0.90
2022-09-30T11:36:15.378Z,1.00
2022-09-30T11:38:55.142Z,1.30
2022-09-30T11:41:29.527Z,0.57
2022-09-30T11:44:03.829Z,1.00
2022-09-30T11:46:40.251Z,0.40
2022-09-30T11:49:35.784Z,0.80
2022-09-30T11:52:11.129Z,0.80
2022-09-30T11:54:45.554Z,1.27
2022-09-30T11:57:19.774Z,0.50
2022-09-30T11:59:51.116Z,0.50
2022-09-30T12:02:27.970Z,0.60
2022-09-30T12:04:58.508Z,0.63
2022-09-30T12:07:32.266Z,0.80
2022-09-30T12:10:02.575Z,0.60
2022-09-30T12:12:32.520Z,0.97
2022-09-30T12:15:02.990Z,1.00
2022-09-30T12:17:33.675Z,0.80
2022-09-30T12:20:05.740Z,1.50
2022-09-30T12:22:46.908Z,1.33
2022-09-30T12:25:16.857Z,0.60
2022-09-30T12:27:49.039Z,1.63
2022-09-30T12:30:17.863Z,1.30
2022-09-30T12:33:01.923Z,1.00
2022-09-30T12:35:49.705Z,0.80
2022-09-30T12:38:25.889Z,0.80
2022-09-30T12:41:04.747Z,1.10
2022-09-30T12:43:55.442Z,1.10
2022-09-30T12:46:27.245Z,1.30
2022-09-30T12:48:57.479Z,1.03
2022-09-30T12:51:28.186Z,0.90
2022-09-30T12:54:00.242Z,1.40
2022-09-30T12:56:30.554Z,0.97
2022-09-30T12:59:04.366Z,1.20
2022-09-30T13:01:33.968Z,1.20
2022-09-30T13:04:17.877Z,1.20
2022-09-30T13:07:04.942Z,1.50
2022-09-30T13:09:36.327Z,1.43
2022-09-30T13:12:18.026Z,1.17
2022-09-30T13:14:47.881Z,1.20
2022-09-30T13:17:27.571Z,1.90
2022-09-30T13:19:58.711Z,2.70
2022-09-30T13:22:43.608Z,1.70
2022-09-30T13:25:16.757Z,3.30
2022-09-30T13:27:46.460Z,3.20
2022-09-30T13:30:36.285Z,2.20
2022-09-30T13:33:23.502Z,2.30
2022-09-30T13:35:53.288Z,1.73
2022-09-30T13:38:25.556Z,1.83
2022-09-30T13:41:02.190Z,3.00
2022-09-30T13:43:34.209Z,1.83
2022-09-30T13:46:08.929Z,2.13
2022-09-30T13:48:38.431Z,2.37
2022-09-30T13:51:09.048Z,1.77
2022-09-30T13:53:39.316Z,2.83
2022-09-30T13:56:09.214Z,2.60
2022-09-30T13:58:46.757Z,2.77
2022-09-30T14:01:22.771Z,2.80
2022-09-30T14:03:58.870Z,2.27
2022-09-30T14:06:33.003Z,1.97
2022-09-30T14:09:15.597Z,2.03
2022-09-30T14:12:03.164Z,2.40
2022-09-30T14:14:40.752Z,1.10
2022-09-30T14:17:23.979Z,2.07
2022-09-30T14:20:03.044Z,1.63
2022-09-30T14:22:31.591Z,2.60
2022-09-30T14:25:03.242Z,1.23
2022-09-30T14:27:39.893Z,1.60
2022-09-30T14:30:13.469Z,0.80
2022-09-30T14:32:47.699Z,1.63
2022-09-30T14:35:19.768Z,2.20
2022-09-30T14:37:50.484Z,1.40
2022-09-30T14:40:21.604Z,1.23
2022-09-30T14:42:50.411Z,1.40
2022-09-30T14:45:21.040Z,1.20
2022-09-30T14:47:51.149Z,1.90
2022-09-30T14:50:23.013Z,1.40
2022-09-30T14:52:57.124Z,1.60
2022-09-30T14:55:27.962Z,1.50
2022-09-30T14:57:57.876Z,1.40
2022-09-30T15:00:30.055Z,1.10
2022-09-30T15:02:59.159Z,1.40
2022-09-30T15:05:29.779Z,1.30
2022-09-30T15:07:58.217Z,1.27
2022-09-30T15:10:27.030Z,2.63
2022-09-30T15:12:56.288Z,1.60
2022-09-30T15:15:26.491Z,1.97
2022-09-30T15:17:55.581Z,1.63
2022-09-30T15:20:35.562Z,1.70
2022-09-30T15:23:05.244Z,2.40
2022-09-30T15:25:33.910Z,2.30
2022-09-30T15:28:03.475Z,2.63
2022-09-30T15:30:33.212Z,1.87
2022-09-30T15:33:02.895Z,1.97
2022-09-30T15:35:33.337Z,1.77
2022-09-30T15:38:09.531Z,1.63
2022-09-30T15:40:48.491Z,1.23
2022-09-30T15:43:17.863Z,2.80
2022-09-30T15:45:48.616Z,2.90
2022-09-30T15:48:36.000Z,2.70
2022-09-30T15:51:24.286Z,1.97
2022-09-30T15:53:52.748Z,1.70
2022-09-30T15:56:25.891Z,2.27
2022-09-30T15:58:58.145Z,2.40
2022-09-30T16:01:28.252Z,2.27
2022-09-30T16:03:57.807Z,2.27
2022-09-30T16:06:29.339Z,3.37
2022-09-30T16:09:01.583Z,2.90
2022-09-30T16:11:32.299Z,3.17
2022-09-30T16:14:00.836Z,2.03
2022-09-30T16:16:32.141Z,2.67
2022-09-30T16:19:02.317Z,2.87
2022-09-30T16:21:44.914Z,2.63
2022-09-30T16:24:32.267Z,3.10
2022-09-30T16:27:02.966Z,2.33
2022-09-30T16:29:31.278Z,2.40
2022-09-30T16:31:59.661Z,3.33
2022-09-30T16:34:29.207Z,3.00
2022-09-30T16:37:05.671Z,3.57
2022-09-30T16:39:33.897Z,4.50
2022-09-30T16:42:02.209Z,4.30
2022-09-30T16:44:34.314Z,3.93
2022-09-30T16:47:02.709Z,4.33
2022-09-30T16:49:31.192Z,3.67
2022-09-30T16:52:00.847Z,3.77
2022-09-30T16:54:29.117Z,5.13
2022-09-30T16:57:00.246Z,4.87
2022-09-30T16:59:31.070Z,5.00
2022-09-30T17:01:59.762Z,4.60
2022-09-30T17:04:28.262Z,5.73
2022-09-30T17:06:59.004Z,5.60
2022-09-30T17:09:28.727Z,5.13
2022-09-30T17:12:01.141Z,4.17
2022-09-30T17:14:29.419Z,5.03
2022-09-30T17:16:58.252Z,5.30
2022-09-30T17:19:30.045Z,5.30
2022-09-30T17:21:58.410Z,4.80
2022-09-30T17:24:26.914Z,4.90
2022-09-30T17:26:56.649Z,5.07
2022-09-30T17:29:33.019Z,4.93
2022-09-30T17:32:01.733Z,4.20
2022-09-30T17:34:30.220Z,4.93
2022-09-30T17:36:59.864Z,4.87
2022-09-30T17:39:28.640Z,4.77
2022-09-30T17:42:15.883Z,3.70
2022-09-30T17:44:44.135Z,4.13
2022-09-30T17:47:12.467Z,3.40
2022-09-30T17:49:40.779Z,4.10
2022-09-30T17:52:09.465Z,3.30
2022-09-30T17:54:37.765Z,3.70
2022-09-30T17:57:08.349Z,3.90
2022-09-30T17:59:36.646Z,3.83
2022-09-30T18:02:05.422Z,3.40
2022-09-30T18:04:35.492Z,3.40
2022-09-30T18:07:03.749Z,3.47
2022-09-30T18:09:33.082Z,2.70
2022-09-30T18:12:01.477Z,3.43
2022-09-30T18:14:34.970Z,3.20
2022-09-30T18:17:03.766Z,3.70
2022-09-30T18:19:32.464Z,3.70
2022-09-30T18:22:00.803Z,3.83
2022-09-30T18:24:46.557Z,4.53
2022-09-30T18:27:15.006Z,3.70
2022-09-30T18:29:44.667Z,3.20
2022-09-30T18:32:13.342Z,3.30
2022-09-30T18:34:41.791Z,3.90
2022-09-30T18:37:10.092Z,3.83
2022-09-30T18:39:38.561Z,4.23
2022-09-30T18:42:07.146Z,4.33
2022-09-30T18:44:37.667Z,4.00
2022-09-30T18:47:07.419Z,5.27
2022-09-30T18:49:35.757Z,4.43
2022-09-30T18:52:04.607Z,4.33
2022-09-30T18:54:33.702Z,4.50
2022-09-30T18:57:02.012Z,4.10
2022-09-30T18:59:30.384Z,3.60
2022-09-30T19:02:00.358Z,4.23
2022-09-30T19:04:30.073Z,4.37
2022-09-30T19:06:58.392Z,3.80
2022-09-30T19:09:27.133Z,3.47
2022-09-30T19:11:55.489Z,3.20
2022-09-30T19:14:24.840Z,4.40
2022-09-30T19:16:53.712Z,3.53
2022-09-30T19:19:22.818Z,4.07
2022-09-30T19:21:52.858Z,3.90
2022-09-30T19:24:24.089Z,3.07
2022-09-30T19:26:55.645Z,3.87
2022-09-30T19:29:25.006Z,3.40
2022-09-30T19:31:53.417Z,3.03
2022-09-30T19:34:30.719Z,3.43
2022-09-30T19:37:01.690Z,3.13
2022-09-30T19:39:40.467Z,3.03
2022-09-30T19:42:12.726Z,3.47
2022-09-30T19:44:41.884Z,3.80
2022-09-30T19:47:10.150Z,3.37
2022-09-30T19:49:38.501Z,3.63
2022-09-30T19:52:17.533Z,3.53
2022-09-30T19:54:48.903Z,3.60
2022-09-30T19:57:17.185Z,3.00
2022-09-30T19:59:45.476Z,2.43
2022-09-30T20:02:13.812Z,2.20
2022-09-30T20:04:43.784Z,3.13
2022-09-30T20:07:16.197Z,2.97
2022-09-30T20:09:46.568Z,3.37
2022-09-30T20:12:14.850Z,3.73
2022-09-30T20:15:00.563Z,3.10
2022-09-30T20:17:29.779Z,2.43
2022-09-30T20:20:16.024Z,2.07
2022-09-30T20:22:45.722Z,3.53
2022-09-30T20:25:14.041Z,3.53
2022-09-30T20:27:49.808Z,3.37
2022-09-30T20:30:20.449Z,1.37
2022-09-30T20:32:48.762Z,3.40
2022-09-30T20:35:17.338Z,2.60
2022-09-30T20:37:47.002Z,2.43
2022-09-30T20:40:15.355Z,3.60
2022-09-30T20:42:43.655Z,2.90
2022-09-30T20:45:12.239Z,3.53
2022-09-30T20:47:40.822Z,3.17
2022-09-30T20:50:10.283Z,3.30
2022-09-30T20:52:38.608Z,3.17
2022-09-30T20:55:09.478Z,3.43
2022-09-30T20:57:37.778Z,3.50
2022-09-30T21:00:06.638Z,3.87
2022-09-30T21:02:35.023Z,3.13
2022-09-30T21:05:04.218Z,3.77
2022-09-30T21:07:32.523Z,3.67
2022-09-30T21:10:00.858Z,3.77
2022-09-30T21:12:32.073Z,3.80
2022-09-30T21:15:01.212Z,4.30
2022-09-30T21:17:30.309Z,3.73
2022-09-30T21:19:58.698Z,3.53
2022-09-30T21:22:27.238Z,3.63
2022-09-30T21:24:55.550Z,3.90
2022-09-30T21:27:24.093Z,4.27
2022-09-30T21:29:53.828Z,3.57
2022-09-30T21:32:22.199Z,4.17
2022-09-30T21:34:50.505Z,4.00
2022-09-30T21:37:18.814Z,4.23
2022-09-30T21:39:48.372Z,4.60
2022-09-30T21:42:16.741Z,3.83
2022-09-30T21:44:45.112Z,4.23
2022-09-30T21:47:15.692Z,3.27
2022-09-30T21:49:43.946Z,5.10
2022-09-30T21:52:12.323Z,4.57
2022-09-30T21:54:40.671Z,4.60
2022-09-30T21:57:09.310Z,2.93
2022-09-30T21:59:46.309Z,3.13
2022-09-30T22:02:18.263Z,3.50
2022-09-30T22:04:46.591Z,3.47
2022-09-30T22:07:16.212Z,3.60
2022-09-30T22:09:44.614Z,3.50
2022-09-30T22:12:12.931Z,2.70
2022-09-30T22:14:41.295Z,4.03
2022-09-30T22:17:10.170Z,4.50
2022-09-30T22:19:40.028Z,3.37
2022-09-30T22:22:08.327Z,4.47
2022-09-30T22:24:38.157Z,4.77
2022-09-30T22:27:08.355Z,4.20
2022-09-30T22:29:37.009Z,4.07
2022-09-30T22:32:05.523Z,4.30
2022-09-30T22:34:51.377Z,4.50
2022-09-30T22:37:38.552Z,4.63
2022-09-30T22:40:07.153Z,5.03
2022-09-30T22:42:35.766Z,4.77
2022-09-30T22:45:04.880Z,5.30
2022-09-30T22:47:33.314Z,4.50
2022-09-30T22:50:01.774Z,5.20
2022-09-30T22:52:31.993Z,6.47
2022-09-30T22:55:00.327Z,7.33
2022-09-30T22:57:28.654Z,7.47
2022-09-30T22:59:59.006Z,7.03
2022-09-30T23:02:27.439Z,6.73
2022-09-30T23:04:55.768Z,7.90
2022-09-30T23:07:24.076Z,7.60
2022-09-30T23:09:53.784Z,9.23
2022-09-30T23:12:22.552Z,9.43
2022-09-30T23:14:50.950Z,9.10
2022-09-30T23:17:19.314Z,10.77
2022-09-30T23:19:47.655Z,9.67
2022-09-30T23:22:16.003Z,11.73
2022-09-30T23:24:44.297Z,11.13
2022-09-30T23:27:13.932Z,9.83
2022-09-30T23:29:42.252Z,11.27
2022-09-30T23:32:10.652Z,8.70
2022-09-30T23:34:39.026Z,10.57
2022-09-30T23:37:07.356Z,10.03
2022-09-30T23:39:35.665Z,9.50
2022-09-30T23:42:03.986Z,10.70
2022-09-30T23:44:33.624Z,9.67
2022-09-30T23:47:20.051Z,8.80
2022-09-30T23:49:48.304Z,9.83
2022-09-30T23:52:17.396Z,9.47
2022-09-30T23:54:45.807Z,9.73
2022-09-30T23:57:14.077Z,9.57
2022-09-30T23:59:43.755Z,8.37
